Huvudsida
METAR-TAF:

METAR-TAF

Flygplatser :

Alor Setar, Malaysia

latitud: 06-11-40N, longitud: 100-24-03E, höjd: 5 m

Aktuellt väderrapport

Denna rapport gjordes för 1 timme och 4 minuter sedan, klockan 05:00 UTC
Vind 7 kt från syd/sydväst, varierande mellan syd/sydost och väst
Temperatur 33°C
Fuktighet 71%
Tryck 1007 hPa
Sikt: 7000 m
Få moln på en höjd av 2000 ft
Brutna moln på en höjd av 28000 ft

METAR: WMKA 190500Z 21007KT 150V280 7000 FEW020 BKN280 33/27 Q1007

Tid: 14:04 (06:04 UTC)

Väderprognos

Denna rapport gjordes för 1 timme och 4 minuter sedan, klockan 05:00 UTC
Prognos gäller från 19 kl. 06 UTC till 20 kl. 06 UTC
Vind 6 kt från syd
Sikt 10 km eller mer
Få moln på en höjd av 2000 ft
Blir
från 19 kl. 10 UTC till 19 kl. 12 UTC
Vind 2 kt varierande vindriktning
Sikt: 6000 m
Få moln på en höjd av 3000 ft

TAF: WMKA 190500Z 1906/2006 17006KT 9999 FEW020 BECMG 1910/1912 VRB02KT 6000 FEW030

Aktuella väderrapporter och prognoser från 4000 flygplatser (METAR- och TAF-rapporter).

De tillgängliga stationerna syns som gula och röda prickar på kartan.

För musen över prickarna för att se namnen på stationerna.

Klicka sedan för att få väderrapporter och prognoser.

För att ändra kartan: Klicka på de gröna knapparna med ett svart kors på för att zooma in; den gröna knappen med ett streck på för att zooma ut; eller på de gröna pilarna för angränsande kartor.


METAR-TAF: